createdAt,value
2022-11-15T00:02:05.128Z,100361.12
2022-11-15T00:05:10.814Z,100362.19
2022-11-15T00:08:16.501Z,100360.47
2022-11-15T00:11:23.518Z,100362.09
2022-11-15T00:14:29.048Z,100365.59
2022-11-15T00:17:35.016Z,100361.91
2022-11-15T00:20:40.642Z,100360.28
2022-11-15T00:23:46.181Z,100356.88
2022-11-15T00:26:53.103Z,100342.00
2022-11-15T00:29:58.740Z,100350.19
2022-11-15T00:33:05.388Z,100350.25
2022-11-15T00:36:11.778Z,100343.25
2022-11-15T00:39:17.469Z,100344.88
2022-11-15T00:42:24.605Z,100336.91
2022-11-15T00:45:30.206Z,100346.09
2022-11-15T00:48:35.332Z,100338.97
2022-11-15T00:51:41.069Z,100334.84
2022-11-15T00:54:46.585Z,100330.28
2022-11-15T00:57:53.360Z,100337.28
2022-11-15T01:00:58.873Z,100330.28
2022-11-15T01:04:04.297Z,100325.25
2022-11-15T01:07:09.703Z,100328.16
2022-11-15T01:10:15.148Z,100334.44
2022-11-15T01:13:21.899Z,100322.88
2022-11-15T01:16:27.460Z,100316.59
2022-11-15T01:19:32.870Z,100321.00
2022-11-15T01:22:38.325Z,100318.63
2022-11-15T01:25:43.685Z,100313.09
2022-11-15T01:28:50.714Z,100301.47
2022-11-15T01:31:56.208Z,100305.81
2022-11-15T01:35:01.658Z,100306.84
2022-11-15T01:38:07.394Z,100302.31
2022-11-15T01:41:19.266Z,100312.09
2022-11-15T01:44:42.480Z,100309.59
2022-11-15T01:47:52.825Z,100318.41
2022-11-15T01:50:58.874Z,100314.06
2022-11-15T01:54:08.718Z,100312.47
2022-11-15T01:57:15.372Z,100310.75
2022-11-15T02:00:22.557Z,100307.16
2022-11-15T02:03:43.870Z,100314.38
2022-11-15T02:06:51.179Z,100311.59
2022-11-15T02:09:58.495Z,100298.63
2022-11-15T02:13:04.634Z,100296.75
2022-11-15T02:16:18.449Z,100301.09
2022-11-15T02:19:42.480Z,100291.44
2022-11-15T02:23:02.849Z,100292.41
2022-11-15T02:26:32.840Z,100282.81
2022-11-15T02:30:06.156Z,100275.16
2022-11-15T02:33:24.119Z,100277.81
2022-11-15T02:36:39.699Z,100269.28
2022-11-15T02:39:51.981Z,100267.19
2022-11-15T02:43:19.726Z,100262.66
2022-11-15T02:46:44.303Z,100255.66
2022-11-15T02:49:54.214Z,100247.88
2022-11-15T02:52:59.684Z,100246.94
2022-11-15T02:56:05.253Z,100254.78
2022-11-15T02:59:24.779Z,100247.78
2022-11-15T03:02:48.051Z,100249.59
2022-11-15T03:06:06.156Z,100251.09
2022-11-15T03:09:19.680Z,100241.44
2022-11-15T03:12:32.401Z,100242.28
2022-11-15T03:15:42.629Z,100236.69
2022-11-15T03:18:52.054Z,100236.03
2022-11-15T03:22:01.996Z,100236.50
2022-11-15T03:25:11.634Z,100242.53
2022-11-15T03:28:22.483Z,100240.75
2022-11-15T03:31:51.630Z,100246.91
2022-11-15T03:35:01.113Z,100243.28
2022-11-15T03:38:17.744Z,100245.00
2022-11-15T03:41:30.113Z,100244.06
2022-11-15T03:44:43.519Z,100253.91
2022-11-15T03:47:53.864Z,100247.09
2022-11-15T03:50:59.742Z,100242.00
2022-11-15T03:54:07.595Z,100241.78
2022-11-15T03:57:13.536Z,100241.78
2022-11-15T04:00:19.396Z,100237.34
2022-11-15T04:03:24.702Z,100239.78
2022-11-15T04:06:30.077Z,100243.28
2022-11-15T04:09:58.090Z,100241.59
2022-11-15T04:13:05.212Z,100237.44
2022-11-15T04:16:11.395Z,100231.56
2022-11-15T04:19:34.609Z,100229.12
2022-11-15T04:22:57.435Z,100235.59
2022-11-15T04:26:08.115Z,100232.94
2022-11-15T04:29:31.221Z,100233.56
2022-11-15T04:32:38.410Z,100227.22
2022-11-15T04:36:05.474Z,100232.41
2022-11-15T04:39:11.139Z,100237.06
2022-11-15T04:42:18.119Z,100231.03
2022-11-15T04:45:26.606Z,100229.34
2022-11-15T04:48:31.814Z,100228.53
2022-11-15T04:51:37.271Z,100223.25
2022-11-15T04:54:43.816Z,100219.69
2022-11-15T04:58:00.098Z,100225.91
2022-11-15T05:01:09.365Z,100224.19
2022-11-15T05:04:23.725Z,100220.53
2022-11-15T05:07:29.170Z,100217.78
2022-11-15T05:10:34.780Z,100216.06
2022-11-15T05:13:41.873Z,100210.94
2022-11-15T05:16:47.072Z,100207.66
2022-11-15T05:19:52.906Z,100208.59
2022-11-15T05:22:58.283Z,100204.44
2022-11-15T05:26:09.061Z,100204.53
2022-11-15T05:29:16.679Z,100204.34
2022-11-15T05:32:23.134Z,100205.53
2022-11-15T05:35:33.011Z,100203.66
2022-11-15T05:38:38.399Z,100206.22
2022-11-15T05:41:46.867Z,100202.81
2022-11-15T05:44:53.264Z,100194.94
2022-11-15T05:48:02.437Z,100195.78
2022-11-15T05:51:09.521Z,100201.97
2022-11-15T05:54:15.857Z,100194.94
2022-11-15T05:57:21.304Z,100192.22
2022-11-15T06:00:28.184Z,100190.31
2022-11-15T06:03:33.888Z,100189.47
2022-11-15T06:06:39.625Z,100194.78
2022-11-15T06:09:45.066Z,100189.41
2022-11-15T06:12:58.498Z,100194.78
2022-11-15T06:16:05.752Z,100199.22
2022-11-15T06:19:11.197Z,100194.09
2022-11-15T06:22:16.531Z,100201.28
2022-11-15T06:25:22.023Z,100201.41
2022-11-15T06:28:30.758Z,100197.06
2022-11-15T06:31:38.186Z,100203.31
2022-11-15T06:34:43.832Z,100204.16
2022-11-15T06:37:49.363Z,100196.19
2022-11-15T06:40:54.614Z,100201.50
2022-11-15T06:44:00.352Z,100204.91
2022-11-15T06:47:07.317Z,100203.00
2022-11-15T06:50:12.807Z,100210.59
2022-11-15T06:53:18.031Z,100210.41
2022-11-15T06:56:23.409Z,100212.09
2022-11-15T06:59:28.887Z,100218.91
2022-11-15T07:02:35.754Z,100216.06
2022-11-15T07:05:41.278Z,100222.88
2022-11-15T07:08:47.447Z,100232.12
2022-11-15T07:11:53.071Z,100226.34
2022-11-15T07:14:58.230Z,100236.44
2022-11-15T07:18:05.063Z,100231.59
2022-11-15T07:21:12.441Z,100238.31
2022-11-15T07:24:18.214Z,100233.44
2022-11-15T07:27:23.846Z,100237.63
2022-11-15T07:30:30.187Z,100239.72
2022-11-15T07:33:37.258Z,100236.69
2022-11-15T07:36:42.977Z,100235.88
2022-11-15T07:39:48.782Z,100231.44
2022-11-15T07:42:58.107Z,100238.78
2022-11-15T07:46:10.144Z,100229.12
2022-11-15T07:49:17.045Z,100236.38
2022-11-15T07:52:22.988Z,100232.16
2022-11-15T07:55:30.804Z,100229.78
2022-11-15T07:58:36.420Z,100230.87
2022-11-15T08:01:42.303Z,100225.97
2022-11-15T08:04:49.350Z,100227.25
2022-11-15T08:07:57.360Z,100219.69
2022-11-15T08:11:03.389Z,100220.94
2022-11-15T08:14:08.911Z,100221.78
2022-11-15T08:17:14.691Z,100217.50
2022-11-15T08:20:21.684Z,100211.50
2022-11-15T08:23:26.934Z,100220.50
2022-11-15T08:26:32.563Z,100214.59
2022-11-15T08:29:38.628Z,100216.47
2022-11-15T08:32:44.022Z,100211.44
2022-11-15T08:35:50.787Z,100206.31
2022-11-15T08:38:56.279Z,100215.19
2022-11-15T08:42:01.778Z,100211.62
2022-11-15T08:45:08.929Z,100204.84
2022-11-15T08:48:14.248Z,100197.50
2022-11-15T08:51:20.940Z,100194.59
2022-11-15T08:54:26.877Z,100196.69
2022-11-15T08:57:32.483Z,100201.06
2022-11-15T09:00:37.894Z,100184.84
2022-11-15T09:03:43.350Z,100198.16
2022-11-15T09:06:51.276Z,100191.16
2022-11-15T09:09:57.646Z,100185.94
2022-11-15T09:13:03.069Z,100190.00
2022-11-15T09:16:08.933Z,100188.41
2022-11-15T09:19:15.779Z,100191.09
2022-11-15T09:22:23.335Z,100187.62
2022-11-15T09:25:29.198Z,100187.69
2022-11-15T09:28:35.799Z,100189.47
2022-11-15T09:31:41.211Z,100184.53
2022-11-15T09:34:46.743Z,100177.47
2022-11-15T09:37:56.346Z,100180.06
2022-11-15T09:41:23.655Z,100181.53
2022-11-15T09:44:51.922Z,100182.06
2022-11-15T09:48:36.017Z,100180.19
2022-11-15T09:51:30.037Z,100173.94
2022-11-15T09:57:47.783Z,100169.66
2022-11-15T10:00:46.341Z,100173.63
2022-11-15T10:03:38.477Z,100172.09
2022-11-15T10:06:27.429Z,100166.47
2022-11-15T10:09:22.847Z,100158.47
2022-11-15T10:12:14.999Z,100162.56
2022-11-15T10:15:06.239Z,100158.06
2022-11-15T10:18:09.974Z,100155.94
2022-11-15T10:21:01.442Z,100153.81
2022-11-15T10:23:48.204Z,100146.91
2022-11-15T10:26:35.016Z,100145.78
2022-11-15T10:29:27.104Z,100145.91
2022-11-15T10:32:15.743Z,100135.84
2022-11-15T10:35:19.500Z,100132.94
2022-11-15T10:38:08.562Z,100128.84
2022-11-15T10:41:09.233Z,100116.00
2022-11-15T10:44:10.649Z,100113.16
2022-11-15T10:47:37.830Z,100102.81
2022-11-15T10:50:32.985Z,100101.25
2022-11-15T10:53:25.924Z,100099.41
2022-11-15T10:56:17.005Z,100108.19
2022-11-15T10:59:03.878Z,100098.13
2022-11-15T11:01:51.228Z,100097.69
2022-11-15T11:04:51.909Z,100100.72
2022-11-15T11:07:41.682Z,100099.84
2022-11-15T11:10:50.354Z,100093.47
2022-11-15T11:13:37.930Z,100095.59
2022-11-15T11:16:47.163Z,100083.78
2022-11-15T11:19:59.071Z,100082.62
2022-11-15T11:22:59.679Z,100083.09
2022-11-15T11:25:55.488Z,100080.72
2022-11-15T11:28:38.445Z,100071.06
2022-11-15T11:31:22.254Z,100067.22
2022-11-15T11:34:00.769Z,100055.88
2022-11-15T11:36:41.245Z,100057.63
2022-11-15T11:39:26.365Z,100053.41
2022-11-15T11:42:04.927Z,100057.16
2022-11-15T11:44:41.550Z,100059.66
2022-11-15T11:47:13.120Z,100048.94
2022-11-15T11:49:46.931Z,100043.56
2022-11-15T11:52:19.090Z,100044.72
2022-11-15T11:55:05.967Z,100045.72
2022-11-15T11:57:44.017Z,100040.22
2022-11-15T12:00:22.117Z,100047.53
2022-11-15T12:03:10.208Z,100052.50
2022-11-15T12:05:42.627Z,100033.50
2022-11-15T12:08:28.105Z,100020.97
2022-11-15T12:11:05.902Z,100017.31
2022-11-15T12:13:37.797Z,100010.47
2022-11-15T12:16:14.126Z,100010.56
2022-11-15T12:18:46.739Z,100012.91
2022-11-15T12:21:28.102Z,100012.84
2022-11-15T12:24:05.111Z,100007.28
2022-11-15T12:26:39.542Z,100004.94
2022-11-15T12:29:14.176Z,100000.06
2022-11-15T12:31:46.871Z,99993.97
2022-11-15T12:34:32.461Z,99998.72
2022-11-15T12:37:00.761Z,99994.66
2022-11-15T12:40:06.996Z,99989.28
2022-11-15T12:42:43.325Z,99987.78
2022-11-15T12:45:28.490Z,99982.22
2022-11-15T12:48:14.031Z,99972.78
2022-11-15T12:50:59.136Z,99969.78
2022-11-15T12:53:31.915Z,99974.00
2022-11-15T12:56:25.982Z,99969.09
2022-11-15T12:58:58.289Z,99964.22
2022-11-15T13:01:59.851Z,99961.03
2022-11-15T13:04:30.736Z,99955.47
2022-11-15T13:07:04.217Z,99962.91
2022-11-15T13:09:55.995Z,99964.22
2022-11-15T13:12:54.887Z,99956.16
2022-11-15T13:16:00.654Z,99951.94
2022-11-15T13:18:38.343Z,99949.06
2022-11-15T13:21:38.829Z,99946.56
2022-11-15T13:24:14.423Z,99953.44
2022-11-15T13:26:42.704Z,99946.38
2022-11-15T13:29:19.666Z,99948.22
2022-11-15T13:31:50.303Z,99946.88
2022-11-15T13:37:32.079Z,99950.56
2022-11-15T13:40:20.194Z,99943.00
2022-11-15T13:42:48.497Z,99941.81
2022-11-15T13:45:19.717Z,99945.84
2022-11-15T13:47:56.510Z,99931.22
2022-11-15T13:50:28.668Z,99932.37
2022-11-15T13:53:00.799Z,99940.81
2022-11-15T13:55:30.518Z,99940.13
2022-11-15T13:58:01.023Z,99932.72
2022-11-15T14:00:39.719Z,99936.44
2022-11-15T14:03:18.520Z,99924.81
2022-11-15T14:06:03.283Z,99921.28
2022-11-15T14:08:32.308Z,99914.38
2022-11-15T14:11:17.751Z,99910.84
2022-11-15T14:14:06.701Z,99910.84
2022-11-15T14:16:37.544Z,99912.19
2022-11-15T14:19:09.178Z,99902.37
2022-11-15T14:21:38.505Z,99901.00
2022-11-15T14:24:17.384Z,99894.78
2022-11-15T14:26:46.374Z,99896.25
2022-11-15T14:29:25.207Z,99900.25
2022-11-15T14:31:53.594Z,99898.72
2022-11-15T14:34:23.668Z,99895.09
2022-11-15T14:36:52.277Z,99892.00
2022-11-15T14:39:20.454Z,99892.44
2022-11-15T14:41:50.107Z,99894.87
2022-11-15T14:44:51.174Z,99888.03
2022-11-15T14:47:20.699Z,99890.22
2022-11-15T14:49:50.309Z,99878.63
2022-11-15T14:52:32.236Z,99875.81
2022-11-15T14:55:03.264Z,99868.31
2022-11-15T14:57:32.334Z,99870.38
2022-11-15T15:00:00.832Z,99868.75
2022-11-15T15:02:40.987Z,99874.78
2022-11-15T15:05:19.411Z,99866.44
2022-11-15T15:07:48.768Z,99863.22
2022-11-15T15:10:39.584Z,99862.72
2022-11-15T15:13:08.538Z,99866.91
2022-11-15T15:15:38.632Z,99867.25
2022-11-15T15:18:09.477Z,99861.25
2022-11-15T15:20:41.261Z,99861.13
2022-11-15T15:23:17.616Z,99847.03
2022-11-15T15:25:47.313Z,99858.34
2022-11-15T15:28:15.832Z,99851.72
2022-11-15T15:30:44.065Z,99851.47
2022-11-15T15:33:12.351Z,99843.16
2022-11-15T15:35:42.244Z,99840.16
2022-11-15T15:38:13.093Z,99840.06
2022-11-15T15:40:41.670Z,99837.78
2022-11-15T15:43:10.303Z,99837.22
2022-11-15T15:45:40.335Z,99845.66
2022-11-15T15:48:13.328Z,99841.84
2022-11-15T15:50:44.245Z,99844.94
2022-11-15T15:53:13.756Z,99848.25
2022-11-15T15:55:42.427Z,99847.00
2022-11-15T15:58:10.693Z,99841.34
2022-11-15T16:00:39.833Z,99844.44
2022-11-15T16:03:08.444Z,99835.81
2022-11-15T16:05:36.804Z,99836.53
2022-11-15T16:08:06.689Z,99833.09
2022-11-15T16:10:37.691Z,99820.66
2022-11-15T16:13:06.132Z,99821.59
2022-11-15T16:15:34.683Z,99826.50
2022-11-15T16:18:03.627Z,99820.31
2022-11-15T16:20:38.311Z,99824.06
2022-11-15T16:23:10.961Z,99823.13
2022-11-15T16:25:41.872Z,99821.53
2022-11-15T16:28:18.751Z,99828.97
2022-11-15T16:30:50.018Z,99824.75
2022-11-15T16:33:22.301Z,99826.81
2022-11-15T16:35:50.483Z,99824.56
2022-11-15T16:38:20.298Z,99821.44
2022-11-15T16:40:48.809Z,99826.31
2022-11-15T16:43:17.122Z,99821.81
2022-11-15T16:45:45.305Z,99816.47
2022-11-15T16:48:23.708Z,99816.22
2022-11-15T16:50:52.511Z,99820.81
2022-11-15T16:53:22.336Z,99823.78
2022-11-15T16:55:50.709Z,99818.69
2022-11-15T16:58:18.883Z,99821.88
2022-11-15T17:00:47.367Z,99811.59
2022-11-15T17:03:15.469Z,99811.88
2022-11-15T17:05:43.672Z,99812.13
2022-11-15T17:08:12.135Z,99805.97
2022-11-15T17:10:42.413Z,99806.47
2022-11-15T17:13:13.207Z,99800.69
2022-11-15T17:15:41.742Z,99794.03
2022-11-15T17:18:12.318Z,99798.81
2022-11-15T17:20:41.906Z,99797.22
2022-11-15T17:23:14.501Z,99795.37
2022-11-15T17:25:45.711Z,99792.88
2022-11-15T17:28:14.105Z,99796.19
2022-11-15T17:30:43.839Z,99790.25
2022-11-15T17:33:12.226Z,99799.22
2022-11-15T17:35:40.712Z,99795.84
2022-11-15T17:38:08.847Z,99792.47
2022-11-15T17:40:37.093Z,99799.62
2022-11-15T17:43:07.852Z,99799.84
2022-11-15T17:45:37.519Z,99794.78
2022-11-15T17:48:06.219Z,99795.06
2022-11-15T17:50:34.372Z,99789.97
2022-11-15T17:53:02.587Z,99790.09
2022-11-15T17:55:31.048Z,99787.56
2022-11-15T17:57:59.149Z,99791.19
2022-11-15T18:00:28.750Z,99791.19
2022-11-15T18:02:58.327Z,99791.19
2022-11-15T18:05:26.536Z,99789.50
2022-11-15T18:07:54.750Z,99794.00
2022-11-15T18:10:23.403Z,99788.81
2022-11-15T18:12:51.586Z,99792.44
2022-11-15T18:15:21.349Z,99788.09
2022-11-15T18:17:51.140Z,99785.28
2022-11-15T18:20:19.729Z,99778.16
2022-11-15T18:22:48.256Z,99777.88
2022-11-15T18:25:16.826Z,99773.25
2022-11-15T18:27:45.132Z,99762.47
2022-11-15T18:30:14.126Z,99760.66
2022-11-15T18:32:43.003Z,99761.50
2022-11-15T18:35:12.739Z,99752.94
2022-11-15T18:37:41.026Z,99750.81
2022-11-15T18:40:10.755Z,99752.84
2022-11-15T18:42:39.271Z,99752.13
2022-11-15T18:45:09.604Z,99757.47
2022-11-15T18:47:38.589Z,99751.03
2022-11-15T18:50:07.497Z,99753.69
2022-11-15T18:52:37.093Z,99753.69
2022-11-15T18:55:06.202Z,99754.53
2022-11-15T18:57:34.513Z,99751.50
2022-11-15T19:00:03.051Z,99743.25
2022-11-15T19:02:31.892Z,99736.69
2022-11-15T19:05:00.190Z,99736.44
2022-11-15T19:07:28.472Z,99742.47
2022-11-15T19:09:58.396Z,99732.81
2022-11-15T19:12:26.678Z,99733.31
2022-11-15T19:14:54.902Z,99730.91
2022-11-15T19:17:23.443Z,99725.84
2022-11-15T19:19:51.771Z,99715.56
2022-11-15T19:22:20.076Z,99721.72
2022-11-15T19:24:48.651Z,99721.03
2022-11-15T19:27:18.425Z,99721.03
2022-11-15T19:29:46.974Z,99715.84
2022-11-15T19:32:15.657Z,99721.16
2022-11-15T19:34:44.062Z,99719.69
2022-11-15T19:37:12.406Z,99708.47
2022-11-15T19:39:41.486Z,99718.41
2022-11-15T19:42:09.742Z,99720.22
2022-11-15T19:44:39.288Z,99718.41
2022-11-15T19:47:09.323Z,99712.50
2022-11-15T19:49:37.711Z,99708.72
2022-11-15T19:52:06.298Z,99710.16
2022-11-15T19:54:34.864Z,99722.62
2022-11-15T19:57:03.200Z,99716.47
2022-11-15T19:59:31.537Z,99717.31
2022-11-15T20:02:01.707Z,99719.25
2022-11-15T20:04:30.163Z,99713.09
2022-11-15T20:06:58.281Z,99712.37
2022-11-15T20:09:26.656Z,99707.19
2022-11-15T20:11:55.436Z,99708.53
2022-11-15T20:14:24.145Z,99703.19
2022-11-15T20:16:54.469Z,99709.38
2022-11-15T20:19:24.679Z,99708.44
2022-11-15T20:21:53.217Z,99702.31
2022-11-15T20:24:21.540Z,99707.41
2022-11-15T20:26:50.055Z,99713.69
2022-11-15T20:29:18.155Z,99709.47
2022-11-15T20:31:46.777Z,99698.94
2022-11-15T20:34:15.972Z,99701.72
2022-11-15T20:36:45.594Z,99696.53
2022-11-15T20:39:13.774Z,99693.66
2022-11-15T20:41:42.388Z,99684.50
2022-11-15T20:44:10.659Z,99691.00
2022-11-15T20:46:38.813Z,99691.62
2022-11-15T20:49:07.438Z,99698.16
2022-11-15T20:51:36.450Z,99689.09
2022-11-15T20:54:06.285Z,99696.09
2022-11-15T20:56:34.758Z,99689.47
2022-11-15T20:59:02.925Z,99688.37
2022-11-15T21:01:31.944Z,99683.66
2022-11-15T21:04:00.826Z,99684.97
2022-11-15T21:06:28.968Z,99682.66
2022-11-15T21:09:14.662Z,99687.13
2022-11-15T21:12:02.359Z,99680.13
2022-11-15T21:14:31.259Z,99684.72
2022-11-15T21:16:59.759Z,99676.25
2022-11-15T21:19:32.682Z,99681.81
2022-11-15T21:22:05.539Z,99671.66
2022-11-15T21:24:33.798Z,99659.84
2022-11-15T21:27:03.603Z,99662.62
2022-11-15T21:29:37.598Z,99651.75
2022-11-15T21:32:07.427Z,99649.91
2022-11-15T21:34:36.050Z,99653.88
2022-11-15T21:37:04.333Z,99656.63
2022-11-15T21:39:32.462Z,99655.25
2022-11-15T21:42:01.042Z,99661.66
2022-11-15T21:44:30.889Z,99665.28
2022-11-15T21:46:59.287Z,99648.84
2022-11-15T21:49:27.789Z,99644.22
2022-11-15T21:51:55.947Z,99633.97
2022-11-15T21:54:24.168Z,99623.97
2022-11-15T21:56:52.648Z,99620.34
2022-11-15T21:59:20.735Z,99612.16
2022-11-15T22:02:07.607Z,99620.13
2022-11-15T22:04:36.073Z,99613.84
2022-11-15T22:07:04.267Z,99617.59
2022-11-15T22:09:32.369Z,99617.47
2022-11-15T22:12:00.932Z,99615.03
2022-11-15T22:14:29.177Z,99613.59
2022-11-15T22:16:58.623Z,99610.53
2022-11-15T22:19:27.214Z,99605.34
2022-11-15T22:21:55.490Z,99603.19
2022-11-15T22:24:23.683Z,99615.56
2022-11-15T22:26:52.901Z,99603.19
2022-11-15T22:29:21.286Z,99606.88
2022-11-15T22:31:49.550Z,99611.81
2022-11-15T22:34:19.707Z,99606.72
2022-11-15T22:37:18.038Z,99607.09
2022-11-15T22:39:36.478Z,99598.28
2022-11-15T22:42:04.782Z,99602.88
2022-11-15T22:44:32.999Z,99596.81
2022-11-15T22:47:01.439Z,99597.75
2022-11-15T22:49:30.951Z,99591.63
2022-11-15T22:51:59.335Z,99585.47
2022-11-15T22:54:28.835Z,99579.19
2022-11-15T22:56:57.322Z,99569.84
2022-11-15T22:59:26.209Z,99572.50
2022-11-15T23:01:54.701Z,99570.44
2022-11-15T23:04:23.310Z,99567.69
2022-11-15T23:06:53.089Z,99567.47
2022-11-15T23:09:21.846Z,99565.53
2022-11-15T23:12:07.594Z,99568.91
2022-11-15T23:14:36.087Z,99565.28
2022-11-15T23:17:04.317Z,99562.50
2022-11-15T23:19:32.567Z,99550.97
2022-11-15T23:22:20.378Z,99549.16
2022-11-15T23:24:48.635Z,99551.81
2022-11-15T23:27:19.974Z,99555.44
2022-11-15T23:30:06.186Z,99552.88
2022-11-15T23:32:52.186Z,99552.88
2022-11-15T23:35:20.750Z,99553.00
2022-11-15T23:37:50.980Z,99551.53
2022-11-15T23:40:19.385Z,99547.31
2022-11-15T23:42:47.753Z,99547.41
2022-11-15T23:45:16.373Z,99550.44
2022-11-15T23:47:49.757Z,99546.09
2022-11-15T23:50:18.621Z,99544.16
2022-11-15T23:52:46.838Z,99538.00
2022-11-15T23:55:16.638Z,99531.03
2022-11-15T23:57:45.160Z,99539.56
